sensor_id;sensor_type;location;lat;lon;timestamp;temperature;humidity
19692;DHT22;42748;50.016;19.890;2023-03-01T00:00:18;-1.40;99.90
19692;DHT22;42748;50.016;19.890;2023-03-01T00:02:45;-1.40;99.90
19692;DHT22;42748;50.016;19.890;2023-03-01T00:05:12;-1.40;99.90
19692;DHT22;42748;50.016;19.890;2023-03-01T00:07:39;-1.30;99.90
19692;DHT22;42748;50.016;19.890;2023-03-01T00:10:07;-1.30;99.90
19692;DHT22;42748;50.016;19.890;2023-03-01T00:12:34;-1.40;99.90
19692;DHT22;42748;50.016;19.890;2023-03-01T00:15:03;-1.40;99.90
19692;DHT22;42748;50.016;19.890;2023-03-01T00:17:31;-1.40;99.90
19692;DHT22;42748;50.016;19.890;2023-03-01T00:19:58;-1.40;99.90
19692;DHT22;42748;50.016;19.890;2023-03-01T00:22:27;-1.40;99.90
19692;DHT22;42748;50.016;19.890;2023-03-01T00:24:55;-1.50;99.90
19692;DHT22;42748;50.016;19.890;2023-03-01T00:27:22;-1.40;99.90
19692;DHT22;42748;50.016;19.890;2023-03-01T00:29:49;-1.40;99.90
19692;DHT22;42748;50.016;19.890;2023-03-01T00:32:16;-1.40;99.90
19692;DHT22;42748;50.016;19.890;2023-03-01T00:34:43;-1.40;99.90
19692;DHT22;42748;50.016;19.890;2023-03-01T00:37:21;-1.40;99.90
19692;DHT22;42748;50.016;19.890;2023-03-01T00:39:48;-1.40;99.90
19692;DHT22;42748;50.016;19.890;2023-03-01T00:42:16;-1.50;99.90
19692;DHT22;42748;50.016;19.890;2023-03-01T00:44:43;-1.50;99.90
19692;DHT22;42748;50.016;19.890;2023-03-01T00:47:10;-1.50;99.90
19692;DHT22;42748;50.016;19.890;2023-03-01T00:49:37;-1.50;99.90
19692;DHT22;42748;50.016;19.890;2023-03-01T00:52:04;-1.50;99.90
19692;DHT22;42748;50.016;19.890;2023-03-01T00:54:31;-1.60;99.90
19692;DHT22;42748;50.016;19.890;2023-03-01T00:56:58;-1.60;99.90
19692;DHT22;42748;50.016;19.890;2023-03-01T00:59:25;-1.70;99.90
19692;DHT22;42748;50.016;19.890;2023-03-01T01:01:53;-1.70;99.90
19692;DHT22;42748;50.016;19.890;2023-03-01T01:04:21;-1.70;99.90
19692;DHT22;42748;50.016;19.890;2023-03-01T01:06:49;-1.70;99.90
19692;DHT22;42748;50.016;19.890;2023-03-01T01:09:17;-1.70;99.90
19692;DHT22;42748;50.016;19.890;2023-03-01T01:11:46;-1.70;99.90
19692;DHT22;42748;50.016;19.890;2023-03-01T01:14:14;-1.70;99.90
19692;DHT22;42748;50.016;19.890;2023-03-01T01:16:42;-1.70;99.90
19692;DHT22;42748;50.016;19.890;2023-03-01T01:19:10;-1.70;99.90
19692;DHT22;42748;50.016;19.890;2023-03-01T01:21:37;-1.60;99.90
19692;DHT22;42748;50.016;19.890;2023-03-01T01:24:05;-1.60;99.90
19692;DHT22;42748;50.016;19.890;2023-03-01T01:26:33;-1.50;99.90
19692;DHT22;42748;50.016;19.890;2023-03-01T01:29:02;-1.60;99.90
19692;DHT22;42748;50.016;19.890;2023-03-01T01:31:30;-1.60;99.90
19692;DHT22;42748;50.016;19.890;2023-03-01T01:34:00;-1.70;99.90
19692;DHT22;42748;50.016;19.890;2023-03-01T01:36:27;-1.80;99.90
19692;DHT22;42748;50.016;19.890;2023-03-01T01:38:55;-1.90;99.90
19692;DHT22;42748;50.016;19.890;2023-03-01T01:41:24;-1.90;99.90
19692;DHT22;42748;50.016;19.890;2023-03-01T01:49:54;-2.20;99.90
19692;DHT22;42748;50.016;19.890;2023-03-01T01:52:42;-2.10;99.90
19692;DHT22;42748;50.016;19.890;2023-03-01T01:55:18;-2.20;99.90
19692;DHT22;42748;50.016;19.890;2023-03-01T01:57:57;-2.30;99.90
19692;DHT22;42748;50.016;19.890;2023-03-01T02:00:29;-2.40;99.90
19692;DHT22;42748;50.016;19.890;2023-03-01T02:02:59;-2.40;99.90
19692;DHT22;42748;50.016;19.890;2023-03-01T02:05:49;-2.40;99.90
19692;DHT22;42748;50.016;19.890;2023-03-01T02:08:23;-2.50;99.90
19692;DHT22;42748;50.016;19.890;2023-03-01T02:10:53;-2.40;99.90
19692;DHT22;42748;50.016;19.890;2023-03-01T02:13:21;-2.40;99.90
19692;DHT22;42748;50.016;19.890;2023-03-01T02:15:48;-2.40;99.90
19692;DHT22;42748;50.016;19.890;2023-03-01T02:18:18;-2.50;99.90
19692;DHT22;42748;50.016;19.890;2023-03-01T02:23:26;-2.50;99.90
19692;DHT22;42748;50.016;19.890;2023-03-01T02:26:11;-2.50;99.90
19692;DHT22;42748;50.016;19.890;2023-03-01T02:28:44;-2.60;99.90
19692;DHT22;42748;50.016;19.890;2023-03-01T02:31:16;-2.60;99.90
19692;DHT22;42748;50.016;19.890;2023-03-01T02:34:04;-2.70;99.90
19692;DHT22;42748;50.016;19.890;2023-03-01T02:36:36;-2.80;99.90
19692;DHT22;42748;50.016;19.890;2023-03-01T02:39:06;-2.90;99.90
19692;DHT22;42748;50.016;19.890;2023-03-01T02:41:37;-2.90;99.90
19692;DHT22;42748;50.016;19.890;2023-03-01T02:44:05;-3.00;99.90
19692;DHT22;42748;50.016;19.890;2023-03-01T02:46:41;-2.90;99.90
19692;DHT22;42748;50.016;19.890;2023-03-01T02:49:38;-2.90;99.90
19692;DHT22;42748;50.016;19.890;2023-03-01T02:52:21;-2.90;99.90
19692;DHT22;42748;50.016;19.890;2023-03-01T02:55:01;-2.90;99.90
19692;DHT22;42748;50.016;19.890;2023-03-01T02:57:30;-2.90;99.90
19692;DHT22;42748;50.016;19.890;2023-03-01T03:00:04;-2.90;99.90
19692;DHT22;42748;50.016;19.890;2023-03-01T03:02:35;-2.90;99.90
19692;DHT22;42748;50.016;19.890;2023-03-01T03:05:26;-2.90;99.90
19692;DHT22;42748;50.016;19.890;2023-03-01T03:07:57;-3.00;99.90
19692;DHT22;42748;50.016;19.890;2023-03-01T03:10:29;-3.00;99.90
19692;DHT22;42748;50.016;19.890;2023-03-01T03:13:02;-3.00;99.90
19692;DHT22;42748;50.016;19.890;2023-03-01T03:15:29;-3.00;99.90
19692;DHT22;42748;50.016;19.890;2023-03-01T03:17:57;-3.00;99.90
19692;DHT22;42748;50.016;19.890;2023-03-01T03:20:27;-2.90;99.90
19692;DHT22;42748;50.016;19.890;2023-03-01T03:22:56;-2.90;99.90
19692;DHT22;42748;50.016;19.890;2023-03-01T03:25:24;-2.90;99.90
19692;DHT22;42748;50.016;19.890;2023-03-01T03:27:52;-2.90;99.90
19692;DHT22;42748;50.016;19.890;2023-03-01T03:30:29;-2.80;99.90
19692;DHT22;42748;50.016;19.890;2023-03-01T03:32:58;-2.90;99.90
19692;DHT22;42748;50.016;19.890;2023-03-01T03:35:31;-2.80;99.90
19692;DHT22;42748;50.016;19.890;2023-03-01T03:38:00;-2.80;99.90
19692;DHT22;42748;50.016;19.890;2023-03-01T03:40:40;-2.80;99.90
19692;DHT22;42748;50.016;19.890;2023-03-01T03:43:11;-2.80;99.90
19692;DHT22;42748;50.016;19.890;2023-03-01T03:45:38;-2.80;99.90
19692;DHT22;42748;50.016;19.890;2023-03-01T03:48:08;-2.90;99.90
19692;DHT22;42748;50.016;19.890;2023-03-01T03:50:37;-2.90;99.90
19692;DHT22;42748;50.016;19.890;2023-03-01T03:53:08;-2.90;99.90
19692;DHT22;42748;50.016;19.890;2023-03-01T03:55:36;-2.90;99.90
19692;DHT22;42748;50.016;19.890;2023-03-01T03:58:09;-2.90;99.90
19692;DHT22;42748;50.016;19.890;2023-03-01T04:00:42;-2.90;99.90
19692;DHT22;42748;50.016;19.890;2023-03-01T04:03:12;-3.00;99.90
19692;DHT22;42748;50.016;19.890;2023-03-01T04:05:41;-3.00;99.90
19692;DHT22;42748;50.016;19.890;2023-03-01T04:08:09;-3.00;99.90
19692;DHT22;42748;50.016;19.890;2023-03-01T04:10:41;-3.00;99.90
19692;DHT22;42748;50.016;19.890;2023-03-01T04:13:11;-3.10;99.90
19692;DHT22;42748;50.016;19.890;2023-03-01T04:15:39;-3.00;99.90
19692;DHT22;42748;50.016;19.890;2023-03-01T04:18:07;-3.10;99.90
19692;DHT22;42748;50.016;19.890;2023-03-01T04:20:35;-3.10;99.90
19692;DHT22;42748;50.016;19.890;2023-03-01T04:23:07;-3.10;99.90
19692;DHT22;42748;50.016;19.890;2023-03-01T04:25:39;-3.20;99.90
19692;DHT22;42748;50.016;19.890;2023-03-01T04:28:08;-3.20;99.90
19692;DHT22;42748;50.016;19.890;2023-03-01T04:30:36;-3.30;99.90
19692;DHT22;42748;50.016;19.890;2023-03-01T04:33:04;-3.30;99.90
19692;DHT22;42748;50.016;19.890;2023-03-01T04:35:32;-3.30;99.90
19692;DHT22;42748;50.016;19.890;2023-03-01T04:38:02;-3.30;99.90
19692;DHT22;42748;50.016;19.890;2023-03-01T04:40:29;-3.30;99.90
19692;DHT22;42748;50.016;19.890;2023-03-01T04:42:56;-3.20;99.90
19692;DHT22;42748;50.016;19.890;2023-03-01T04:45:23;-3.20;99.90
19692;DHT22;42748;50.016;19.890;2023-03-01T04:47:51;-3.20;99.90
19692;DHT22;42748;50.016;19.890;2023-03-01T04:50:21;-3.10;99.90
19692;DHT22;42748;50.016;19.890;2023-03-01T04:52:50;-3.20;99.90
19692;DHT22;42748;50.016;19.890;2023-03-01T04:55:17;-3.20;99.90
19692;DHT22;42748;50.016;19.890;2023-03-01T04:57:45;-3.10;99.90
19692;DHT22;42748;50.016;19.890;2023-03-01T05:00:14;-3.00;99.90
19692;DHT22;42748;50.016;19.890;2023-03-01T05:02:52;-3.00;99.90
19692;DHT22;42748;50.016;19.890;2023-03-01T05:05:26;-3.00;99.90
19692;DHT22;42748;50.016;19.890;2023-03-01T05:07:55;-2.90;99.90
19692;DHT22;42748;50.016;19.890;2023-03-01T05:10:22;-2.80;99.90
19692;DHT22;42748;50.016;19.890;2023-03-01T05:12:49;-2.80;99.90
19692;DHT22;42748;50.016;19.890;2023-03-01T05:15:18;-2.70;99.90
19692;DHT22;42748;50.016;19.890;2023-03-01T05:17:49;-2.70;99.90
19692;DHT22;42748;50.016;19.890;2023-03-01T05:20:16;-2.70;99.90
19692;DHT22;42748;50.016;19.890;2023-03-01T05:22:44;-2.80;99.90
19692;DHT22;42748;50.016;19.890;2023-03-01T05:25:11;-2.90;99.90
19692;DHT22;42748;50.016;19.890;2023-03-01T05:27:40;-3.00;99.90
19692;DHT22;42748;50.016;19.890;2023-03-01T05:30:08;-3.00;99.90
19692;DHT22;42748;50.016;19.890;2023-03-01T05:32:47;-3.00;99.90
19692;DHT22;42748;50.016;19.890;2023-03-01T05:35:16;-3.10;99.90
19692;DHT22;42748;50.016;19.890;2023-03-01T05:37:45;-3.10;99.90
19692;DHT22;42748;50.016;19.890;2023-03-01T05:40:18;-3.20;99.90
19692;DHT22;42748;50.016;19.890;2023-03-01T05:45:14;-3.10;99.90
19692;DHT22;42748;50.016;19.890;2023-03-01T05:47:43;-3.20;99.90
19692;DHT22;42748;50.016;19.890;2023-03-01T05:50:22;-3.20;99.90
19692;DHT22;42748;50.016;19.890;2023-03-01T05:52:52;-3.30;99.90
19692;DHT22;42748;50.016;19.890;2023-03-01T05:55:21;-3.40;99.90
19692;DHT22;42748;50.016;19.890;2023-03-01T05:57:48;-3.30;99.90
19692;DHT22;42748;50.016;19.890;2023-03-01T06:00:17;-3.30;99.90
19692;DHT22;42748;50.016;19.890;2023-03-01T06:02:45;-3.20;99.90
19692;DHT22;42748;50.016;19.890;2023-03-01T06:05:13;-3.10;99.90
19692;DHT22;42748;50.016;19.890;2023-03-01T06:07:40;-3.00;99.90
19692;DHT22;42748;50.016;19.890;2023-03-01T06:10:08;-2.80;99.90
19692;DHT22;42748;50.016;19.890;2023-03-01T06:12:38;-2.50;99.90
19692;DHT22;42748;50.016;19.890;2023-03-01T06:15:06;-2.30;99.90
19692;DHT22;42748;50.016;19.890;2023-03-01T06:17:40;-2.10;99.90
19692;DHT22;42748;50.016;19.890;2023-03-01T06:20:09;-2.00;99.90
19692;DHT22;42748;50.016;19.890;2023-03-01T06:22:36;-1.70;99.90
19692;DHT22;42748;50.016;19.890;2023-03-01T06:25:04;-1.50;99.90
19692;DHT22;42748;50.016;19.890;2023-03-01T06:27:32;-1.10;99.90
19692;DHT22;42748;50.016;19.890;2023-03-01T06:29:59;-0.60;99.90
19692;DHT22;42748;50.016;19.890;2023-03-01T06:32:26;-0.30;99.90
19692;DHT22;42748;50.016;19.890;2023-03-01T06:34:53;-0.20;99.90
19692;DHT22;42748;50.016;19.890;2023-03-01T06:37:20;-0.20;99.90
19692;DHT22;42748;50.016;19.890;2023-03-01T06:39:47;-0.20;99.90
19692;DHT22;42748;50.016;19.890;2023-03-01T06:42:14;-0.20;99.90
19692;DHT22;42748;50.016;19.890;2023-03-01T06:44:41;0.00;99.90
19692;DHT22;42748;50.016;19.890;2023-03-01T06:47:08;0.00;99.90
19692;DHT22;42748;50.016;19.890;2023-03-01T06:49:35;0.30;99.90
19692;DHT22;42748;50.016;19.890;2023-03-01T06:52:02;0.90;99.90
19692;DHT22;42748;50.016;19.890;2023-03-01T06:54:30;1.60;99.90
19692;DHT22;42748;50.016;19.890;2023-03-01T06:56:57;2.00;99.90
19692;DHT22;42748;50.016;19.890;2023-03-01T06:59:24;2.30;99.90
19692;DHT22;42748;50.016;19.890;2023-03-01T07:01:50;2.80;99.90
19692;DHT22;42748;50.016;19.890;2023-03-01T07:04:18;3.30;99.90
19692;DHT22;42748;50.016;19.890;2023-03-01T07:06:45;3.50;99.90
19692;DHT22;42748;50.016;19.890;2023-03-01T07:09:12;3.40;99.90
19692;DHT22;42748;50.016;19.890;2023-03-01T07:11:39;3.50;99.90
19692;DHT22;42748;50.016;19.890;2023-03-01T07:14:06;3.40;99.90
19692;DHT22;42748;50.016;19.890;2023-03-01T07:16:33;3.50;99.90
19692;DHT22;42748;50.016;19.890;2023-03-01T07:19:01;3.40;99.90
19692;DHT22;42748;50.016;19.890;2023-03-01T07:21:28;3.40;99.90
19692;DHT22;42748;50.016;19.890;2023-03-01T07:23:55;3.90;99.90
19692;DHT22;42748;50.016;19.890;2023-03-01T07:26:22;4.20;99.90
19692;DHT22;42748;50.016;19.890;2023-03-01T07:28:51;4.00;99.90
19692;DHT22;42748;50.016;19.890;2023-03-01T07:31:18;3.80;99.90
19692;DHT22;42748;50.016;19.890;2023-03-01T07:33:45;4.20;99.90
19692;DHT22;42748;50.016;19.890;2023-03-01T07:36:12;4.20;99.90
19692;DHT22;42748;50.016;19.890;2023-03-01T07:38:40;4.10;99.90
19692;DHT22;42748;50.016;19.890;2023-03-01T07:41:07;3.60;99.90
19692;DHT22;42748;50.016;19.890;2023-03-01T07:43:34;3.80;99.90
19692;DHT22;42748;50.016;19.890;2023-03-01T07:46:02;4.30;99.90
19692;DHT22;42748;50.016;19.890;2023-03-01T07:48:31;5.30;99.90
19692;DHT22;42748;50.016;19.890;2023-03-01T07:51:02;5.90;99.90
19692;DHT22;42748;50.016;19.890;2023-03-01T07:53:30;6.00;99.90
19692;DHT22;42748;50.016;19.890;2023-03-01T07:56:03;6.10;99.90
19692;DHT22;42748;50.016;19.890;2023-03-01T07:58:30;6.10;99.90
19692;DHT22;42748;50.016;19.890;2023-03-01T08:01:04;6.10;99.90
19692;DHT22;42748;50.016;19.890;2023-03-01T08:03:32;6.00;99.90
19692;DHT22;42748;50.016;19.890;2023-03-01T08:06:00;6.00;99.90
19692;DHT22;42748;50.016;19.890;2023-03-01T08:08:28;6.10;99.90
19692;DHT22;42748;50.016;19.890;2023-03-01T08:10:59;6.40;99.90
19692;DHT22;42748;50.016;19.890;2023-03-01T08:13:27;6.30;99.90
19692;DHT22;42748;50.016;19.890;2023-03-01T08:15:54;6.20;99.90
19692;DHT22;42748;50.016;19.890;2023-03-01T08:18:21;6.30;99.90
19692;DHT22;42748;50.016;19.890;2023-03-01T08:20:48;6.30;99.90
19692;DHT22;42748;50.016;19.890;2023-03-01T08:23:15;6.30;99.90
19692;DHT22;42748;50.016;19.890;2023-03-01T08:25:43;6.20;99.90
19692;DHT22;42748;50.016;19.890;2023-03-01T08:28:10;6.10;99.90
19692;DHT22;42748;50.016;19.890;2023-03-01T08:30:37;6.50;99.90
19692;DHT22;42748;50.016;19.890;2023-03-01T08:33:03;6.50;99.90
19692;DHT22;42748;50.016;19.890;2023-03-01T08:35:31;6.90;99.90
19692;DHT22;42748;50.016;19.890;2023-03-01T08:37:58;7.40;99.90
19692;DHT22;42748;50.016;19.890;2023-03-01T08:40:25;7.50;99.90
19692;DHT22;42748;50.016;19.890;2023-03-01T08:42:52;7.50;99.90
19692;DHT22;42748;50.016;19.890;2023-03-01T08:45:19;7.40;99.90
19692;DHT22;42748;50.016;19.890;2023-03-01T08:47:46;7.60;99.90
19692;DHT22;42748;50.016;19.890;2023-03-01T08:50:13;8.00;99.90
19692;DHT22;42748;50.016;19.890;2023-03-01T08:52:40;8.00;99.90
19692;DHT22;42748;50.016;19.890;2023-03-01T08:55:08;8.10;99.90
19692;DHT22;42748;50.016;19.890;2023-03-01T08:57:35;8.10;99.90
19692;DHT22;42748;50.016;19.890;2023-03-01T09:00:03;8.30;99.90
19692;DHT22;42748;50.016;19.890;2023-03-01T09:02:30;8.00;99.90
19692;DHT22;42748;50.016;19.890;2023-03-01T09:05:00;8.40;99.90
19692;DHT22;42748;50.016;19.890;2023-03-01T09:07:27;8.60;99.60
19692;DHT22;42748;50.016;19.890;2023-03-01T09:09:56;8.50;98.50
19692;DHT22;42748;50.016;19.890;2023-03-01T09:12:24;8.90;95.20
19692;DHT22;42748;50.016;19.890;2023-03-01T09:14:51;8.70;94.80
19692;DHT22;42748;50.016;19.890;2023-03-01T09:17:19;8.90;92.50
19692;DHT22;42748;50.016;19.890;2023-03-01T09:19:48;9.10;91.50
19692;DHT22;42748;50.016;19.890;2023-03-01T09:22:16;9.30;84.70
19692;DHT22;42748;50.016;19.890;2023-03-01T09:24:43;9.20;79.40
19692;DHT22;42748;50.016;19.890;2023-03-01T09:27:10;9.00;81.00
19692;DHT22;42748;50.016;19.890;2023-03-01T09:29:39;9.00;85.70
19692;DHT22;42748;50.016;19.890;2023-03-01T09:32:06;9.10;79.30
19692;DHT22;42748;50.016;19.890;2023-03-01T09:34:35;9.30;78.00
19692;DHT22;42748;50.016;19.890;2023-03-01T09:37:22;9.00;76.50
19692;DHT22;42748;50.016;19.890;2023-03-01T09:39:49;9.00;76.00
19692;DHT22;42748;50.016;19.890;2023-03-01T09:42:16;9.20;74.60
19692;DHT22;42748;50.016;19.890;2023-03-01T09:44:51;9.10;78.00
19692;DHT22;42748;50.016;19.890;2023-03-01T09:47:34;9.20;75.00
19692;DHT22;42748;50.016;19.890;2023-03-01T09:50:19;9.50;73.50
19692;DHT22;42748;50.016;19.890;2023-03-01T09:53:13;9.30;71.70
19692;DHT22;42748;50.016;19.890;2023-03-01T09:56:02;9.40;71.30
19692;DHT22;42748;50.016;19.890;2023-03-01T09:58:51;9.00;78.20
19692;DHT22;42748;50.016;19.890;2023-03-01T10:09:41;9.20;71.10
19692;DHT22;42748;50.016;19.890;2023-03-01T10:12:16;9.20;72.10
19692;DHT22;42748;50.016;19.890;2023-03-01T10:15:08;9.00;73.70
19692;DHT22;42748;50.016;19.890;2023-03-01T10:17:41;8.90;72.50
19692;DHT22;42748;50.016;19.890;2023-03-01T10:22:47;9.10;70.50
19692;DHT22;42748;50.016;19.890;2023-03-01T10:28:30;9.00;72.60
19692;DHT22;42748;50.016;19.890;2023-03-01T10:30:59;9.00;71.40
19692;DHT22;42748;50.016;19.890;2023-03-01T10:33:30;9.00;69.70
19692;DHT22;42748;50.016;19.890;2023-03-01T10:35:58;9.30;67.60
19692;DHT22;42748;50.016;19.890;2023-03-01T10:38:25;9.00;68.50
19692;DHT22;42748;50.016;19.890;2023-03-01T10:40:58;8.90;70.20
19692;DHT22;42748;50.016;19.890;2023-03-01T10:43:30;9.00;71.30
19692;DHT22;42748;50.016;19.890;2023-03-01T10:45:58;8.80;71.60
19692;DHT22;42748;50.016;19.890;2023-03-01T10:48:26;8.80;72.20
19692;DHT22;42748;50.016;19.890;2023-03-01T10:53:48;9.40;69.10
19692;DHT22;42748;50.016;19.890;2023-03-01T10:56:16;9.40;69.30
19692;DHT22;42748;50.016;19.890;2023-03-01T10:59:25;9.30;69.30
19692;DHT22;42748;50.016;19.890;2023-03-01T11:02:15;9.40;68.20
19692;DHT22;42748;50.016;19.890;2023-03-01T11:05:01;8.90;66.60
19692;DHT22;42748;50.016;19.890;2023-03-01T11:07:28;8.70;67.00
19692;DHT22;42748;50.016;19.890;2023-03-01T11:09:55;8.90;66.80
19692;DHT22;42748;50.016;19.890;2023-03-01T11:12:24;8.70;66.00
19692;DHT22;42748;50.016;19.890;2023-03-01T11:14:53;8.90;65.60
19692;DHT22;42748;50.016;19.890;2023-03-01T11:17:24;8.80;66.10
19692;DHT22;42748;50.016;19.890;2023-03-01T11:20:20;8.90;66.20
19692;DHT22;42748;50.016;19.890;2023-03-01T11:22:58;8.90;69.00
19692;DHT22;42748;50.016;19.890;2023-03-01T11:25:31;8.80;70.90
19692;DHT22;42748;50.016;19.890;2023-03-01T11:28:02;8.30;74.20
19692;DHT22;42748;50.016;19.890;2023-03-01T11:30:40;8.30;75.50
19692;DHT22;42748;50.016;19.890;2023-03-01T11:35:41;8.70;74.20
19692;DHT22;42748;50.016;19.890;2023-03-01T11:38:24;8.50;73.60
19692;DHT22;42748;50.016;19.890;2023-03-01T11:41:07;7.90;78.60
19692;DHT22;42748;50.016;19.890;2023-03-01T11:43:57;8.00;78.60
19692;DHT22;42748;50.016;19.890;2023-03-01T11:46:42;7.60;81.50
19692;DHT22;42748;50.016;19.890;2023-03-01T12:15:40;7.60;67.80
19692;DHT22;42748;50.016;19.890;2023-03-01T12:18:28;7.60;68.80
19692;DHT22;42748;50.016;19.890;2023-03-01T12:43:07;7.10;76.30
19692;DHT22;42748;50.016;19.890;2023-03-01T12:48:56;7.00;75.30
19692;DHT22;42748;50.016;19.890;2023-03-01T12:51:29;7.10;77.90
19692;DHT22;42748;50.016;19.890;2023-03-01T12:54:01;7.00;83.10
19692;DHT22;42748;50.016;19.890;2023-03-01T12:56:35;7.00;86.40
19692;DHT22;42748;50.016;19.890;2023-03-01T12:59:26;7.00;87.80
19692;DHT22;42748;50.016;19.890;2023-03-01T13:02:03;7.20;88.40
19692;DHT22;42748;50.016;19.890;2023-03-01T13:07:30;7.20;90.00
19692;DHT22;42748;50.016;19.890;2023-03-01T13:20:46;7.30;79.40
19692;DHT22;42748;50.016;19.890;2023-03-01T13:30:59;7.00;87.30
19692;DHT22;42748;50.016;19.890;2023-03-01T13:36:00;6.80;86.70
19692;DHT22;42748;50.016;19.890;2023-03-01T13:41:27;6.90;82.70
19692;DHT22;42748;50.016;19.890;2023-03-01T13:46:56;6.90;75.10
19692;DHT22;42748;50.016;19.890;2023-03-01T13:49:29;6.80;74.50
19692;DHT22;42748;50.016;19.890;2023-03-01T13:55:19;7.00;66.20
19692;DHT22;42748;50.016;19.890;2023-03-01T13:57:50;7.00;67.30
19692;DHT22;42748;50.016;19.890;2023-03-01T14:00:38;7.00;70.00
19692;DHT22;42748;50.016;19.890;2023-03-01T14:03:11;6.80;72.90
19692;DHT22;42748;50.016;19.890;2023-03-01T14:05:40;6.80;72.30
19692;DHT22;42748;50.016;19.890;2023-03-01T14:08:23;6.80;71.70
19692;DHT22;42748;50.016;19.890;2023-03-01T14:11:10;6.80;71.50
19692;DHT22;42748;50.016;19.890;2023-03-01T14:19:23;6.60;74.40
19692;DHT22;42748;50.016;19.890;2023-03-01T14:22:24;6.70;74.40
19692;DHT22;42748;50.016;19.890;2023-03-01T14:25:01;6.80;75.10
19692;DHT22;42748;50.016;19.890;2023-03-01T14:27:39;6.90;74.60
19692;DHT22;42748;50.016;19.890;2023-03-01T14:30:21;6.90;75.00
19692;DHT22;42748;50.016;19.890;2023-03-01T14:33:19;6.70;73.00
19692;DHT22;42748;50.016;19.890;2023-03-01T14:38:45;6.50;75.80
19692;DHT22;42748;50.016;19.890;2023-03-01T14:41:15;6.50;78.30
19692;DHT22;42748;50.016;19.890;2023-03-01T14:44:05;6.50;79.30
19692;DHT22;42748;50.016;19.890;2023-03-01T14:46:36;6.60;77.70
19692;DHT22;42748;50.016;19.890;2023-03-01T14:49:17;6.60;79.50
19692;DHT22;42748;50.016;19.890;2023-03-01T14:51:54;6.60;79.50
19692;DHT22;42748;50.016;19.890;2023-03-01T14:54:44;6.70;79.70
19692;DHT22;42748;50.016;19.890;2023-03-01T14:57:17;6.50;80.70
19692;DHT22;42748;50.016;19.890;2023-03-01T14:59:45;6.60;81.90
19692;DHT22;42748;50.016;19.890;2023-03-01T15:02:19;6.50;79.20
19692;DHT22;42748;50.016;19.890;2023-03-01T15:04:48;6.40;80.60
19692;DHT22;42748;50.016;19.890;2023-03-01T15:07:16;6.40;80.90
19692;DHT22;42748;50.016;19.890;2023-03-01T15:09:44;6.30;82.70
19692;DHT22;42748;50.016;19.890;2023-03-01T15:15:00;6.20;81.90
19692;DHT22;42748;50.016;19.890;2023-03-01T15:17:37;6.20;81.60
19692;DHT22;42748;50.016;19.890;2023-03-01T15:20:17;6.20;82.50
19692;DHT22;42748;50.016;19.890;2023-03-01T15:22:48;6.10;83.60
19692;DHT22;42748;50.016;19.890;2023-03-01T15:25:19;6.00;85.60
19692;DHT22;42748;50.016;19.890;2023-03-01T15:27:50;5.80;89.70
19692;DHT22;42748;50.016;19.890;2023-03-01T15:30:29;5.70;91.80
19692;DHT22;42748;50.016;19.890;2023-03-01T15:33:37;5.70;91.30
19692;DHT22;42748;50.016;19.890;2023-03-01T15:39:04;5.70;91.90
19692;DHT22;42748;50.016;19.890;2023-03-01T15:41:46;5.80;92.10
19692;DHT22;42748;50.016;19.890;2023-03-01T15:44:25;5.90;92.10
19692;DHT22;42748;50.016;19.890;2023-03-01T15:47:01;5.90;91.40
19692;DHT22;42748;50.016;19.890;2023-03-01T15:49:40;5.80;91.10
19692;DHT22;42748;50.016;19.890;2023-03-01T15:52:22;5.70;92.60
19692;DHT22;42748;50.016;19.890;2023-03-01T15:55:01;5.60;94.10
19692;DHT22;42748;50.016;19.890;2023-03-01T15:57:28;5.50;95.40
19692;DHT22;42748;50.016;19.890;2023-03-01T15:59:56;5.50;96.30
19692;DHT22;42748;50.016;19.890;2023-03-01T16:02:24;5.40;96.60
19692;DHT22;42748;50.016;19.890;2023-03-01T16:04:51;5.30;97.70
19692;DHT22;42748;50.016;19.890;2023-03-01T16:07:20;5.20;97.30
19692;DHT22;42748;50.016;19.890;2023-03-01T16:09:47;5.20;97.10
19692;DHT22;42748;50.016;19.890;2023-03-01T16:12:15;5.10;97.20
19692;DHT22;42748;50.016;19.890;2023-03-01T16:14:42;5.10;98.20
19692;DHT22;42748;50.016;19.890;2023-03-01T16:17:10;5.00;99.60
19692;DHT22;42748;50.016;19.890;2023-03-01T16:19:37;4.90;99.90
19692;DHT22;42748;50.016;19.890;2023-03-01T16:22:05;4.90;99.90
19692;DHT22;42748;50.016;19.890;2023-03-01T16:24:32;4.80;99.90
19692;DHT22;42748;50.016;19.890;2023-03-01T16:26:59;4.80;99.90
19692;DHT22;42748;50.016;19.890;2023-03-01T16:29:26;4.70;99.90
19692;DHT22;42748;50.016;19.890;2023-03-01T16:31:53;4.60;99.90
19692;DHT22;42748;50.016;19.890;2023-03-01T16:34:21;4.50;99.90
19692;DHT22;42748;50.016;19.890;2023-03-01T16:36:48;4.50;99.90
19692;DHT22;42748;50.016;19.890;2023-03-01T16:39:16;4.40;99.90
19692;DHT22;42748;50.016;19.890;2023-03-01T16:41:43;4.40;99.90
19692;DHT22;42748;50.016;19.890;2023-03-01T16:44:10;4.40;99.90
19692;DHT22;42748;50.016;19.890;2023-03-01T16:46:37;4.30;99.90
19692;DHT22;42748;50.016;19.890;2023-03-01T16:49:04;4.20;99.90
19692;DHT22;42748;50.016;19.890;2023-03-01T16:51:31;4.10;99.90
19692;DHT22;42748;50.016;19.890;2023-03-01T16:54:01;4.10;99.90
19692;DHT22;42748;50.016;19.890;2023-03-01T16:56:31;4.00;99.90
19692;DHT22;42748;50.016;19.890;2023-03-01T16:59:01;4.00;99.90
19692;DHT22;42748;50.016;19.890;2023-03-01T17:01:32;3.90;99.90
19692;DHT22;42748;50.016;19.890;2023-03-01T17:04:04;3.90;99.90
19692;DHT22;42748;50.016;19.890;2023-03-01T17:06:31;3.90;99.90
19692;DHT22;42748;50.016;19.890;2023-03-01T17:08:59;4.00;99.90
19692;DHT22;42748;50.016;19.890;2023-03-01T17:11:26;3.90;99.90
19692;DHT22;42748;50.016;19.890;2023-03-01T17:13:53;3.90;99.90
19692;DHT22;42748;50.016;19.890;2023-03-01T17:16:20;3.80;99.90
19692;DHT22;42748;50.016;19.890;2023-03-01T17:18:48;3.70;99.90
19692;DHT22;42748;50.016;19.890;2023-03-01T17:21:16;3.60;99.90
19692;DHT22;42748;50.016;19.890;2023-03-01T17:23:45;3.60;99.90
19692;DHT22;42748;50.016;19.890;2023-03-01T17:26:12;3.60;99.90
19692;DHT22;42748;50.016;19.890;2023-03-01T17:28:40;3.50;99.90
19692;DHT22;42748;50.016;19.890;2023-03-01T17:31:10;3.50;99.90
19692;DHT22;42748;50.016;19.890;2023-03-01T17:33:37;3.50;99.90
19692;DHT22;42748;50.016;19.890;2023-03-01T17:36:04;3.40;99.90
19692;DHT22;42748;50.016;19.890;2023-03-01T17:38:31;3.30;99.90
19692;DHT22;42748;50.016;19.890;2023-03-01T17:40:59;3.30;99.90
19692;DHT22;42748;50.016;19.890;2023-03-01T17:43:27;3.30;99.90
19692;DHT22;42748;50.016;19.890;2023-03-01T17:45:55;3.30;99.90
19692;DHT22;42748;50.016;19.890;2023-03-01T17:48:22;3.20;99.90
19692;DHT22;42748;50.016;19.890;2023-03-01T17:50:49;3.20;99.90
19692;DHT22;42748;50.016;19.890;2023-03-01T17:53:16;3.20;99.90
19692;DHT22;42748;50.016;19.890;2023-03-01T17:55:44;3.20;99.90
19692;DHT22;42748;50.016;19.890;2023-03-01T17:58:12;3.20;99.90